Terminal Aerodrome Forecast
Issued by NWS

Home | Current Version | Previous Version | Text Only | Print | Product List | Glossary On
Versions: 1 2 3 4 5 6 7 8 9 10 11 12 13 14 15 16 17 18 19 20 21
000
FTUS45 KBOU 010533
TAFBJC
TAF
KBJC 010533Z 0106/0206 VRB05KT P6SM FEW120 SCT200
     FM010800 26008KT P6SM FEW120 SCT200
     FM011200 VRB05KT P6SM FEW130 SCT220
     FM012000 12007KT P6SM FEW090 SCT130 BKN200
     FM020000 01007KT P6SM SCT140 BKN200
     FM020300 26008KT P6SM FEW140 SCT200=

USA.gov is the U.S. government's official web portal to all federal, state and local government web resources and services.